CST,Max TemperatureF,Mean TemperatureF,Min TemperatureF,Max Dew PointF,MeanDew PointF,Min DewpointF,Max Humidity, Mean Humidity, Min Humidity, Max Sea Level PressureIn, Mean Sea Level PressureIn, Min Sea Level PressureIn, Max VisibilityMiles, Mean VisibilityMiles, Min VisibilityMiles, Max Wind SpeedMPH, Mean Wind SpeedMPH, Max Gust SpeedMPH,PrecipitationIn, CloudCover, Events, WindDirDegrees
2013-12-1,66,58,51,53,47,42,78,68,54,30.23,30.11,29.94,10,10,5,8,3,,0.00,8,,173
2013-12-2,70,59,48,57,53,47,94,80,55,29.94,29.79,29.71,10,9,4,7,3,,0.00,4,,186
2013-12-3,76,63,50,61,56,49,96,81,51,29.72,29.65,29.58,10,7,0,12,5,20,0.00,2,Fog,153
2013-12-4,78,70,63,66,63,61,93,80,59,29.85,29.76,29.69,10,8,5,16,7,25,0.00,6,,172
2013-12-5,69,53,37,67,50,36,93,90,78,30.11,29.97,29.84,10,5,3,13,5,20,0.00,8,Rain,9
2013-12-6,38,35,31,36,34,28,95,92,86,30.42,30.21,30.04,10,7,2,13,6,18,0.12,8,Rain-Thunderstorm,5
2013-12-7,34,32,29,28,26,24,92,83,70,30.50,30.41,30.30,10,10,5,12,7,18,0.03,8,Rain,24
2013-12-8,37,34,30,36,32,28,96,93,90,30.29,30.18,30.09,10,6,1,6,2,,0.01,8,,88
2013-12-9,37,35,33,36,34,32,96,94,92,30.32,30.22,30.16,10,5,2,9,4,,0.09,8,Rain-Thunderstorm,15
2013-12-10,46,38,29,33,31,28,97,83,54,30.48,30.40,30.31,10,9,4,10,5,16,0.05,3,,357
2013-12-11,51,39,27,35,31,26,96,79,48,30.56,30.45,30.38,10,9,0,8,2,,0.00,0,Fog,13
2013-12-12,53,41,29,31,27,21,92,69,29,30.61,30.51,30.39,10,10,10,6,2,,0.00,0,,66
2013-12-13,44,39,34,42,33,25,96,78,49,30.38,30.12,29.88,10,8,2,12,4,20,1.46,4,Rain,113
2013-12-14,47,42,38,46,41,32,96,88,76,30.26,30.02,29.83,10,8,1,15,4,24,0.00,8,,319
2013-12-15,51,40,28,35,31,27,96,78,44,30.37,30.30,30.25,10,8,2,7,3,,0.00,1,,312
2013-12-16,63,46,30,38,34,29,96,70,33,30.33,30.27,30.21,10,10,5,8,2,,0.00,0,,192
2013-12-17,68,50,32,43,37,32,96,72,33,30.31,30.28,30.23,10,10,10,6,1,,0.00,0,,207
2013-12-18,68,51,34,44,39,33,96,67,33,30.34,30.23,30.13,10,10,10,12,2,17,0.00,0,,165
2013-12-19,71,58,44,59,50,39,91,73,55,30.13,30.01,29.91,10,10,7,13,6,23,0.00,4,,150
2013-12-20,73,69,65,67,64,59,89,83,73,29.96,29.87,29.77,10,10,7,15,7,21,0.00,8,Rain-Thunderstorm,149
2013-12-21,71,62,53,68,61,51,94,91,86,29.81,29.67,29.51,10,8,0,20,9,32,2.53,7,Fog-Rain-Thunderstorm,181
2013-12-22,53,44,36,52,42,30,95,85,72,30.34,30.05,29.81,10,8,0,14,5,20,0.00,8,Fog,305
2013-12-23,48,39,29,32,29,27,96,73,45,30.55,30.46,30.34,10,10,4,10,6,17,0.00,3,,351
2013-12-24,50,38,27,32,30,26,96,76,45,30.59,30.49,30.37,10,10,1,8,2,,0.00,0,,101
2013-12-25,58,43,28,40,32,26,96,70,30,30.42,30.37,30.31,10,10,10,7,2,,0.00,2,,142
2013-12-26,57,44,32,38,35,32,96,73,44,30.45,30.38,30.33,10,10,7,9,1,,0.00,0,,72
2013-12-27,57,44,32,38,34,28,96,74,34,30.49,30.41,30.35,10,10,10,5,1,,0.00,0,,78
2013-12-28,55,47,39,39,36,28,91,72,36,30.34,30.18,30.02,10,10,10,5,0,,0.00,2,,6
2013-12-29,63,48,34,45,39,33,96,74,45,30.17,30.07,30.01,10,10,5,8,1,,0.00,4,,242
2013-12-30,49,42,35,40,35,32,89,80,71,30.40,30.28,30.16,10,10,7,10,6,16,0.00,7,,321
2013-12-31,47,40,32,35,32,31,99,85,55,30.48,30.40,30.29,10,8,0,7,1,,0.00,1,Fog,90